Logo AVAMET
Benvolgut visitant, si us plau, ingressa Recuperar contrasenya

Inforatge Bellreguard

Dades diàries. Acumulats / Últims 30 dies disponibles

Data Temperatura (°C) Humitat rel. (%) Pressió rel. (hPa) Vent (km/h) Precipitació
Mínima Mitjana Màxima Amplitud
tèrmica
Mínima Mitjana Màxima Mínima Mitjana Màxima Predom. Mitjana Ràfega
màxima
Total
(mm)
Índex-n
Mínima Mitjana Màxima Mínima Mitjana Màxima n
0 a 1
P0 max
mm 5'
Dades mensuals acumulades fins l'últim dia disponible
12/2019 8,8 11,2 15,7 14,0 13,2 17,4 20,9 12,1 0 71 96 1.004 1.017 1.027   9,5 67,6 192,6
Dades anuals acumulades fins l'últim dia disponible
2019 1,4 14,9 27,1 19,1 11,4 23,7 40,0 38,6 0 66 98 993 1.017 1.036   7,1 72,2 621,6
Últims 30 dies disponibles
13-12-2019 15,7     18,2     20,2 4,5 0 57 64 1.007 1.010 1.013 W 22,4 66,0 0,0
12-12-2019 11,4     13,8     15,8 4,4 49 55 61 1.010 1.016 1.021 W 19,2 67,6 0,0
11-12-2019 12,1     15,9     20,4 8,3 0 42 58 1.016 1.019 1.022 W 9,8 51,5 0,0
10-12-2019 10,7     14,4     19,4 8,7 0 46 57 1.023 1.025 1.027 W 5,3 32,2 0,0
09-12-2019 13,4     16,2     20,9 7,5 32 55 74 1.021 1.024 1.027 W 10,6 41,8 0,0
08-12-2019 8,8     13,5     18,3 9,5 55 74 90 1.021 1.023 1.024 SW 7,2 30,6 0,0
07-12-2019 9,5     12,3     16,7 7,2 71 87 93 1.022 1.023 1.025 SW 4,5 16,1 0,0
06-12-2019 10,7     12,8     16,2 5,5 77 89 94 1.022 1.023 1.025 WSW 3,4 17,7 0,0
05-12-2019 10,7     12,9     17,3 6,6 73 88 93 1.009 1.016 1.022 W 4,5 27,4 2,2 0,20
04-12-2019 10,7     12,1     13,2 2,5 80 90 96 1.004 1.006 1.010 W 9,7 49,9 28,2 0,32 1,70
03-12-2019 9,8     12,1     13,8 4,0 76 87 96 1.010 1.015 1.017 NE 12,6 46,7 35,8 0,42 1,00
02-12-2019 10,6     12,9     14,2 3,6 71 89 95 1.011 1.014 1.017 E 8,9 38,6 126,4 0,58 6,00
01-12-2019 11,2     15,3     20,3 9,1 0 65 76 1.010 1.012 1.014 W 5,6 27,4 0,0
30-11-2019 13,9     17,0     23,4 9,5 44 69 81 1.014 1.018 1.021 SO 7,1 25,7 0,0
29-11-2019 16,4     18,8     22,3 5,9 52 59 70 1.016 1.018 1.021 W 10,0 35,4 0,0
28-11-2019 14,7     16,8     20,0 5,3 51 58 64 1.013 1.016 1.018 W 11,6 40,2 0,0
27-11-2019 16,5     18,8     21,9 5,4 39 56 69 1.009 1.011 1.013 W 10,9 53,1 0,0
26-11-2019 15,2     18,8     22,8 7,6 47 62 75 1.009 1.012 1.015 W 10,5 38,6 0,0
25-11-2019 12,9     17,3     20,4 7,5 56 62 70 1.012 1.013 1.015 W 11,6 43,5 0,0
24-11-2019 11,8     14,4     18,2 6,4 40 50 60 1.008 1.011 1.014 W 14,6 43,5 0,0
23-11-2019 11,9     15,3     17,2 5,3 40 54 72 993 999 1.008 W 19,2 61,2 0,6
22-11-2019 10,4     14,4     18,6 8,2 63 77 87 993 1.002 1.008 SW 5,6 33,8 1,0
21-11-2019 7,9     12,9     17,0 9,1 55 73 91 1.008 1.009 1.011 SW 3,4 19,3 0,0
20-11-2019 7,1     11,6     16,6 9,5 44 65 87 1.009 1.012 1.015 SW 5,6 20,9 0,2
19-11-2019 5,2     10,4     16,8 11,6 33 60 76 1.014 1.016 1.018 SW 6,6 27,4 0,0
18-11-2019 7,8     12,1     15,5 7,7 52 70 87 1.006 1.011 1.016 W 6,0 29,0 1,2
17-11-2019 9,4     13,0     17,2 7,8 41 53 82 1.009 1.012 1.015 W 17,4 48,3 0,8
16-11-2019 7,3     11,4     16,3 9,0 37 54 69 1.007 1.011 1.015 W 7,9 29,0 0,0
15-11-2019 9,8     12,4     15,8 6,0 39 52 63 1.001 1.003 1.007 W 11,6 45,1 0,0
14-11-2019 10,9     13,8     17,8 6,9 49 62 78 1.000 1.003 1.009 W 10,0 49,9 0,0
Últims 13 mesos disponibles
11/2019 5,2 12,6 21,5 16,0 15,5 19,9 27,3 22,1 45 57 77 999 1.011 1.018 W 11,2 66,0 5,6
10/2019 12,1 16,4 20,8 20,4 16,0 25,0 32,1 20,0 45 69 86 1.008 1.016 1.022 SW 5,9 51,5 55,8
09/2019 14,6 20,3 23,2 24,0 23,6 27,9 35,6 21,0 48 76 91 1.010 1.017 1.023 S 6,5 66,7 72,0
08/2019 18,3 22,6 27,1 27,0 27,7 31,7 40,0 21,7 50 71 82 1.010 1.015 1.019 SSE 6,2 48,2 27,0
07/2019 20,8 23,0 26,3 27,2 28,0 31,6 37,6 16,8 42 68 80 1.005 1.013 1.021 SSE 6,7 58,0 0,4
06/2019 13,2 18,0 22,6 23,1 20,7 27,6 34,1 20,9 37 66 82 1.009 1.015 1.022 SSE 6,0 46,7 0,0
05/2019 9,6 14,9 22,2 19,5 18,5 24,3 31,6 22,0 35 67 81 1.006 1.015 1.024 SSE 6,4 51,9 5,6
04/2019 8,8 12,2 17,0 16,0 14,6 20,1 29,7 20,9 38 68 94 1.000 1.013 1.025 SSE 7,8 51,9 204,8
03/2019 6,2 9,5 16,0 14,8 14,1 19,9 28,6 22,4 30 61 93 1.011 1.023 1.030 SSE 5,8 61,1 55,4
02/2019 4,5 7,7 11,7 12,4 13,3 17,5 22,7 18,2 33 64 84 995 1.025 1.034 S 6,7 72,2 0,0
01/2019 1,4 7,4 14,4 11,6 11,4 16,9 21,2 19,8 40 59 80 1.002 1.019 1.031 SSO 8,1 61,1 2,4
12/2018 4,8 9,5 14,3 13,6 14,8 19,2 25,9 21,1 53 69 90 1.010 1.025 1.031 SSO 6,3 51,9 19,6
11/2018 7,1 12,4 15,7 15,3 16,3 19,0 23,3 16,2 48 73 96 1.001 1.016 1.024 OSO 6,3 58,0 204,4
Tots els anys disponibles
Temperatura (°C)
Humitat relativa (%)
Velocitat del vent i ràfega màxima (km/h)
Direcció del vent (°)
Pressió (hPa)
Precipitació (mm)
Nota sobre les dades: s'avisa a l'usuari de la provisionalitat i no oficialitat d'aquestes dades
Logo AVAMET blanc
Web allotjada a Sollutia
Llicència de Creative CommonsLa web d'AVAMET i els seus continguts estan subjectes a una llicència de
Reconeixement - No Comercial - Compartir igual
Últimes estacions: Aielo de Malferit - Centre (Soci), Faura (Inforatge), Benifairó de les Valls (Inforatge), Xàbia - Les Valls (Soci) - - -